Seneca, WI

2:17 AM CDT on May 06, 2015 (GMT -0500)
Soldiers Grove area | | Change Station
CLOSE
Current Station
Personal Weather Station
Location: Soldiers Grove, WI
Elevation: 1132 ft
Nearby Weather Stations

Elev 1132 ft 43.42 °N, 90.86 °W | Updated 20 seconds ago

Overcast
Overcast
52.4 °F
Feels Like 52.4 °F
N
2.0
Wind Variable Wind from ESE
Gusts 9.0 mph

Today
High -- | Low -- °F
--% Chance of Precip.
Yesterday
High -- | Low -- °F
Precip. -- in
5:50 AM 8:10 PM
Waning Gibbous, 95% visible
Pressure 30.18 in
Visibility 5.0 miles
Clouds Overcast 800 ft
Dew Point 52 °F
Humidity 97%
Rainfall 0.00 in
Snow Depth Not available.
UV 0 out of 12
Pollen 1.60 out of 12
Air Quality Not available.
Flu Activity Local Activity
METAR KOVS 060653Z AUTO 05003KT 5SM BR OVC008 13/11 A3017 RMK AO2 SLP219 T01280111

More Conditions Fewer Conditions

Pressure 30.18 in
Visibility 5.0 miles
Clouds Overcast 800 ft
Dew Point 52 °F
Humidity 97%
Rainfall 0.00 in
Snow Depth Not available.
UV 0 out of 12
Pollen 1.60 out of 12
Air Quality Not available.
Flu Activity Local Activity
METAR KOVS 060653Z AUTO 05003KT 5SM BR OVC008 13/11 A3017 RMK AO2 SLP219 T01280111

More Conditions Fewer Conditions

10-Day Weather Forecast

Almanac

Astronomy

May. 06, 2015 Rise Set
Actual Time
Civil Twilight
Nautical Twilight
Astronomical Twilight
Moon
Length of Visible Light
Length of Day
Tomorrow will be .
, % of the Moon is Illuminated

Today's Extremes

State Highs State Lows

Community

WunderPhotos

Upload Photos

1,818,850 photos uploaded!

WunderBlogs® & News

Nearby

Air Quality

  Air Quality AQ Index Pollutant
Not available.

Snow Depth

Station Depth Elevation

Earthquake Activity

City Distance Mag. Time & Date
Minimum magnitude displayed is 2.5.

Coastal Water Temperatures

Place Temperature

Stations

Nearby Weather Stations

Station Location Temp. Windchill Dew Point Humidity Wind Precip. Elev Updated Type